Time;durP1;ratioP1;P1;durP2;ratioP2;P2;SDS_P1;SDS_P2;PMS_P1;PMS_P2;Temp;Humidity;BMP_temperature;BMP_pressure;BME280_temperature;BME280_humidity;BME280_pressure;Samples;Min_cycle;Max_cycle;Signal;HPM_P1;HPM_P2
2022/07/19 00:02:06;;;;;;;;;7.33;6.00;;;;;;;;5076310;28;45504;-78
2022/07/19 00:04:32;;;;;;;;;8.67;8.00;;;;;;;;5075595;28;46489;-79
2022/07/19 00:06:57;;;;;;;;;6.33;5.33;;;;;;;;5075622;28;45459;-80
2022/07/19 00:09:23;;;;;;;;;8.00;6.00;;;;;;;;5075838;28;45512;-79
2022/07/19 00:11:48;;;;;;;;;8.67;7.33;;;;;;;;5073153;28;45845;-78
2022/07/19 00:14:13;;;;;;;;;7.00;7.00;;;;;;;;5075548;28;45544;-79
2022/07/19 00:16:39;;;;;;;;;5.00;5.00;;;;;;;;5074812;28;45583;-78
2022/07/19 00:19:04;;;;;;;;;9.33;7.00;;;;;;;;5075089;28;45445;-78
2022/07/19 00:21:29;;;;;;;;;10.00;6.67;;;;;;;;5076362;27;45390;-77
2022/07/19 00:23:54;;;;;;;;;11.00;9.00;;;;;;;;5075511;28;47507;-78
2022/07/19 00:26:20;;;;;;;;;8.67;7.00;;;;;;;;5075053;28;45501;-78
2022/07/19 00:28:45;;;;;;;;;13.33;12.67;;;;;;;;5075809;28;45346;-79
2022/07/19 00:31:10;;;;;;;;;12.00;11.00;;;;;;;;5075808;28;45716;-79
2022/07/19 00:33:35;;;;;;;;;16.67;15.33;;;;;;;;5075261;28;45679;-77
2022/07/19 00:36:00;;;;;;;;;49.50;36.50;;;;;;;;5074697;28;45681;-77
2022/07/19 00:38:26;;;;;;;;;63.50;46.50;;;;;;;;5075206;28;45345;-77
2022/07/19 00:40:51;;;;;;;;;65.25;50.50;;;;;;;;5075376;28;45498;-77
2022/07/19 00:43:16;;;;;;;;;67.00;50.00;;;;;;;;5075267;28;47188;-77
2022/07/19 00:45:41;;;;;;;;;73.00;53.50;;;;;;;;5075147;28;45498;-76
2022/07/19 00:48:07;;;;;;;;;61.25;46.50;;;;;;;;5074841;28;45423;-77
2022/07/19 00:50:32;;;;;;;;;68.00;51.50;;;;;;;;5075337;28;45575;-77
2022/07/19 00:53:00;;;;;;;;;68.75;52.50;;;;;;;;5073711;28;47282;-77
2022/07/19 00:55:27;;;;;;;;;72.00;52.75;;;;;;;;5075013;28;45801;-82
2022/07/19 00:57:53;;;;;;;;;72.75;52.75;;;;;;;;5074846;28;45352;-76
2022/07/19 01:00:18;;;;;;;;;64.25;44.25;;;;;;;;5075039;28;45565;-78
2022/07/19 01:02:43;;;;;;;;;63.75;44.75;;;;;;;;5074788;28;47012;-81
2022/07/19 01:05:10;;;;;;;;;58.25;45.25;;;;;;;;5074585;28;45446;-73
2022/07/19 01:07:37;;;;;;;;;62.75;47.50;;;;;;;;5079335;27;45625;-73
2022/07/19 01:10:02;;;;;;;;;63.75;48.50;;;;;;;;5074998;28;45442;-73
2022/07/19 01:12:29;;;;;;;;;64.75;48.25;;;;;;;;5074754;28;46469;-73
2022/07/19 01:14:55;;;;;;;;;61.50;44.25;;;;;;;;5069480;28;45759;-73
2022/07/19 01:17:20;;;;;;;;;54.50;40.00;;;;;;;;5074853;28;45564;-78
2022/07/19 01:19:45;;;;;;;;;53.50;40.25;;;;;;;;5074947;28;45452;-77
2022/07/19 01:22:11;;;;;;;;;47.00;35.50;;;;;;;;5074916;28;45505;-78
2022/07/19 01:24:36;;;;;;;;;44.00;36.00;;;;;;;;5075353;28;45450;-77
2022/07/19 01:27:01;;;;;;;;;41.25;34.75;;;;;;;;5075268;28;45391;-77
2022/07/19 01:29:27;;;;;;;;;40.33;31.00;;;;;;;;5074654;28;45501;-75
2022/07/19 01:31:52;;;;;;;;;36.00;27.75;;;;;;;;5077511;27;46974;-77
2022/07/19 01:34:17;;;;;;;;;36.00;30.50;;;;;;;;5085073;27;45380;-75
2022/07/19 01:36:43;;;;;;;;;33.00;27.67;;;;;;;;5073305;28;46547;-76
2022/07/19 01:39:08;;;;;;;;;32.33;24.00;;;;;;;;5072766;28;45441;-77
2022/07/19 01:41:33;;;;;;;;;35.67;28.00;;;;;;;;5073241;28;47189;-77
2022/07/19 01:43:58;;;;;;;;;21.00;19.33;;;;;;;;5073740;28;45429;-77
2022/07/19 01:46:24;;;;;;;;;21.00;17.33;;;;;;;;5073638;28;45946;-77
2022/07/19 01:48:49;;;;;;;;;18.00;16.67;;;;;;;;5074077;28;45589;-77
2022/07/19 01:51:14;;;;;;;;;23.67;18.67;;;;;;;;5072970;28;46939;-77
2022/07/19 01:53:39;;;;;;;;;29.00;24.33;;;;;;;;5073863;28;45380;-77
2022/07/19 01:56:05;;;;;;;;;20.00;17.67;;;;;;;;5047442;28;45557;-78
2022/07/19 01:58:31;;;;;;;;;15.67;14.67;;;;;;;;5074173;28;45364;-77
2022/07/19 02:00:56;;;;;;;;;14.00;11.00;;;;;;;;5073335;28;46375;-77
2022/07/19 02:03:21;;;;;;;;;16.33;15.00;;;;;;;;5073831;28;45745;-76
2022/07/19 02:05:46;;;;;;;;;13.00;12.00;;;;;;;;5074202;28;45634;-77
2022/07/19 02:08:12;;;;;;;;;14.00;12.00;;;;;;;;5076450;28;45244;-76
2022/07/19 02:10:37;;;;;;;;;14.33;11.67;;;;;;;;5078056;28;45541;-77
2022/07/19 02:13:02;;;;;;;;;8.00;8.00;;;;;;;;5078411;28;45383;-77
2022/07/19 02:15:27;;;;;;;;;9.33;5.33;;;;;;;;5077872;28;45745;-77
2022/07/19 02:17:53;;;;;;;;;15.67;14.00;;;;;;;;5078829;28;45311;-77
2022/07/19 02:20:18;;;;;;;;;12.00;9.00;;;;;;;;5078417;28;46333;-77
2022/07/19 02:22:43;;;;;;;;;9.67;9.67;;;;;;;;5078108;28;45592;-77
2022/07/19 02:25:09;;;;;;;;;13.00;11.33;;;;;;;;5078061;28;45785;-77
2022/07/19 02:27:34;;;;;;;;;13.00;10.67;;;;;;;;5078660;28;45301;-76
2022/07/19 02:29:59;;;;;;;;;3.00;3.00;;;;;;;;5079287;28;47171;-76
2022/07/19 02:32:24;;;;;;;;;8.33;7.00;;;;;;;;5078203;28;45615;-76
2022/07/19 02:34:50;;;;;;;;;12.33;8.67;;;;;;;;5078726;28;45431;-77
2022/07/19 02:37:15;;;;;;;;;9.00;9.00;;;;;;;;5078212;28;45748;-76
2022/07/19 02:39:40;;;;;;;;;11.00;10.00;;;;;;;;5077696;28;46637;-76
2022/07/19 02:42:05;;;;;;;;;10.00;7.67;;;;;;;;5077306;28;45393;-76
2022/07/19 02:44:31;;;;;;;;;8.67;8.67;;;;;;;;5078322;28;45519;-77
2022/07/19 02:46:56;;;;;;;;;8.00;8.00;;;;;;;;5078286;28;45423;-77
2022/07/19 02:49:22;;;;;;;;;9.67;6.00;;;;;;;;5077796;28;45635;-77
2022/07/19 02:51:47;;;;;;;;;14.00;9.00;;;;;;;;5077618;28;45716;-76
2022/07/19 02:54:13;;;;;;;;;11.33;8.00;;;;;;;;5077907;28;45689;-77
2022/07/19 02:56:38;;;;;;;;;10.67;8.00;;;;;;;;5078113;28;45524;-77
2022/07/19 02:59:04;;;;;;;;;8.00;8.00;;;;;;;;5077827;28;46460;-77
2022/07/19 03:01:29;;;;;;;;;7.00;7.00;;;;;;;;5077922;28;45433;-77
2022/07/19 03:03:55;;;;;;;;;8.67;7.00;;;;;;;;5077685;28;45498;-77
2022/07/19 03:06:20;;;;;;;;;9.00;8.00;;;;;;;;5077609;28;45326;-77
2022/07/19 03:08:46;;;;;;;;;8.00;7.00;;;;;;;;5077718;28;46069;-77
2022/07/19 03:11:11;;;;;;;;;8.00;8.00;;;;;;;;5077184;28;45411;-77
2022/07/19 03:13:37;;;;;;;;;13.33;9.33;;;;;;;;5077450;28;45415;-77
2022/07/19 03:16:02;;;;;;;;;12.00;9.00;;;;;;;;5077446;28;45300;-77
2022/07/19 03:18:27;;;;;;;;;10.33;7.33;;;;;;;;5077327;28;47196;-77
2022/07/19 03:20:52;;;;;;;;;14.33;13.00;;;;;;;;5075381;28;45425;-78
2022/07/19 03:23:18;;;;;;;;;14.00;12.00;;;;;;;;5077415;28;45379;-78
2022/07/19 03:25:43;;;;;;;;;7.00;7.00;;;;;;;;5076846;28;45382;-78
2022/07/19 03:28:08;;;;;;;;;9.67;8.00;;;;;;;;5076848;28;45450;-79
2022/07/19 03:30:33;;;;;;;;;7.67;7.67;;;;;;;;5077385;28;45247;-80
2022/07/19 03:32:59;;;;;;;;;10.00;9.00;;;;;;;;5077534;28;45554;-80
2022/07/19 03:35:25;;;;;;;;;10.67;9.00;;;;;;;;5077189;28;45787;-80
2022/07/19 03:37:51;;;;;;;;;9.00;7.67;;;;;;;;5077110;28;45543;-80
2022/07/19 03:40:16;;;;;;;;;7.33;7.33;;;;;;;;5077007;28;45749;-80
2022/07/19 03:42:41;;;;;;;;;12.33;9.00;;;;;;;;5077420;28;45963;-81
2022/07/19 03:45:07;;;;;;;;;8.33;8.33;;;;;;;;5076588;28;45491;-80
2022/07/19 03:47:32;;;;;;;;;8.00;8.00;;;;;;;;5076966;28;46601;-80
2022/07/19 03:49:58;;;;;;;;;13.00;9.00;;;;;;;;5076900;28;45445;-80
2022/07/19 03:52:23;;;;;;;;;10.67;9.00;;;;;;;;5077180;28;45451;-80
2022/07/19 03:54:49;;;;;;;;;10.33;9.33;;;;;;;;5077364;28;45505;-81
2022/07/19 03:57:14;;;;;;;;;8.00;8.00;;;;;;;;5076587;28;45509;-79
2022/07/19 03:59:39;;;;;;;;;8.00;8.00;;;;;;;;5077066;28;45376;-82
2022/07/19 04:02:04;;;;;;;;;8.00;8.00;;;;;;;;5076818;28;45379;-79
2022/07/19 04:04:29;;;;;;;;;9.00;9.00;;;;;;;;5077189;28;45359;-76
2022/07/19 04:06:55;;;;;;;;;14.33;14.33;;;;;;;;5076335;28;47505;-75
2022/07/19 04:09:20;;;;;;;;;15.67;11.67;;;;;;;;5076619;28;45537;-74
2022/07/19 04:11:45;;;;;;;;;8.33;8.33;;;;;;;;5077010;28;45442;-73
2022/07/19 04:14:10;;;;;;;;;7.33;7.33;;;;;;;;5076805;28;45330;-73
2022/07/19 04:16:36;;;;;;;;;10.33;9.00;;;;;;;;5075534;28;45458;-74
2022/07/19 04:19:01;;;;;;;;;12.67;9.67;;;;;;;;5076237;28;45348;-74
2022/07/19 04:21:26;;;;;;;;;9.33;9.33;;;;;;;;5076774;28;45843;-74
2022/07/19 04:23:51;;;;;;;;;10.00;9.33;;;;;;;;5077037;28;45534;-73
2022/07/19 04:26:16;;;;;;;;;11.67;8.00;;;;;;;;5076207;28;47083;-74
2022/07/19 04:28:42;;;;;;;;;10.00;8.00;;;;;;;;5076254;28;45262;-76
2022/07/19 04:31:07;;;;;;;;;12.33;10.67;;;;;;;;5076263;28;45744;-75
2022/07/19 04:33:32;;;;;;;;;28.00;22.00;;;;;;;;5076426;28;45605;-75
2022/07/19 04:35:57;;;;;;;;;9.33;8.67;;;;;;;;5076494;28;46092;-75
2022/07/19 04:38:23;;;;;;;;;11.33;8.33;;;;;;;;5061111;28;45467;-75
2022/07/19 04:40:48;;;;;;;;;10.00;8.00;;;;;;;;5076398;28;45370;-76
2022/07/19 04:43:13;;;;;;;;;8.00;8.00;;;;;;;;5076444;28;45341;-77
2022/07/19 04:45:44;;;;;;;;;8.67;7.33;;;;;;;;5075849;28;47068;-76
2022/07/19 04:48:09;;;;;;;;;9.33;8.00;;;;;;;;5075956;28;46065;-76
2022/07/19 04:50:34;;;;;;;;;11.33;8.00;;;;;;;;5076329;28;45628;-75
2022/07/19 04:53:00;;;;;;;;;8.67;7.33;;;;;;;;5076453;28;45442;-76
2022/07/19 04:55:25;;;;;;;;;10.67;10.67;;;;;;;;5075987;28;47224;-74
2022/07/19 04:57:50;;;;;;;;;10.00;7.67;;;;;;;;5075818;28;45482;-75
2022/07/19 05:00:15;;;;;;;;;9.67;8.67;;;;;;;;5076014;28;45671;-77
2022/07/19 05:02:41;;;;;;;;;11.67;9.00;;;;;;;;5076397;28;45276;-77
2022/07/19 05:05:06;;;;;;;;;7.33;7.00;;;;;;;;5075608;28;46536;-77
2022/07/19 05:07:31;;;;;;;;;10.00;8.00;;;;;;;;5076115;28;45391;-77
2022/07/19 05:09:57;;;;;;;;;7.67;7.33;;;;;;;;5075626;28;45371;-79
2022/07/19 05:12:22;;;;;;;;;7.00;7.00;;;;;;;;5076109;28;45411;-78
2022/07/19 05:14:47;;;;;;;;;10.00;7.00;;;;;;;;5075674;28;46404;-76
2022/07/19 05:17:13;;;;;;;;;12.33;8.00;;;;;;;;5075384;28;45394;-78
2022/07/19 05:19:38;;;;;;;;;9.33;7.67;;;;;;;;5075803;28;45688;-76
2022/07/19 05:22:03;;;;;;;;;7.00;7.00;;;;;;;;5075786;28;45448;-77
2022/07/19 05:24:29;;;;;;;;;6.00;5.33;;;;;;;;5075761;28;46896;-78
2022/07/19 05:26:54;;;;;;;;;4.33;4.33;;;;;;;;5075686;28;45311;-77
2022/07/19 05:29:19;;;;;;;;;5.00;5.00;;;;;;;;5075472;28;45441;-77
2022/07/19 05:31:44;;;;;;;;;5.67;5.33;;;;;;;;5075607;28;45386;-75
2022/07/19 05:34:10;;;;;;;;;5.00;5.00;;;;;;;;5075750;28;45455;-77
2022/07/19 05:36:35;;;;;;;;;7.33;6.00;;;;;;;;5075526;28;45328;-76
2022/07/19 05:39:00;;;;;;;;;8.00;8.00;;;;;;;;5055422;28;45334;-77
2022/07/19 05:41:25;;;;;;;;;6.50;6.50;;;;;;;;5055180;28;45344;-76
2022/07/19 05:43:51;;;;;;;;;5.00;5.00;;;;;;;;5062406;28;46610;-76
2022/07/19 05:46:16;;;;;;;;;5.00;5.00;;;;;;;;5079107;28;45411;-76
2022/07/19 05:48:42;;;;;;;;;7.00;7.00;;;;;;;;5079307;28;45531;-78
2022/07/19 05:51:07;;;;;;;;;6.00;6.00;;;;;;;;5078821;28;45418;-75
2022/07/19 05:53:34;;;;;;;;;4.00;3.67;;;;;;;;5078710;28;46655;-75
2022/07/19 05:56:00;;;;;;;;;4.67;4.67;;;;;;;;5079057;28;45429;-71
2022/07/19 05:58:25;;;;;;;;;5.33;5.33;;;;;;;;5075721;28;45514;-73
2022/07/19 06:03:34;;;;;;;;;5.67;5.00;;;;;;;;5071286;27;45709;-79
2022/07/19 06:06:00;;;;;;;;;5.00;5.00;;;;;;;;5078335;28;45405;-74
2022/07/19 06:08:25;;;;;;;;;4.00;4.00;;;;;;;;5079194;28;45437;-77
2022/07/19 06:10:50;;;;;;;;;5.33;5.33;;;;;;;;5078632;28;45742;-79
2022/07/19 06:13:16;;;;;;;;;8.67;4.67;;;;;;;;5077487;28;47252;-79
2022/07/19 06:15:41;;;;;;;;;6.33;5.33;;;;;;;;5060262;28;45935;-77
2022/07/19 06:18:06;;;;;;;;;9.33;5.33;;;;;;;;5077492;28;45351;-77
2022/07/19 06:20:32;;;;;;;;;10.67;7.33;;;;;;;;5078312;28;45385;-76
2022/07/19 06:22:57;;;;;;;;;10.00;7.00;;;;;;;;5077537;28;46404;-76
2022/07/19 06:25:22;;;;;;;;;7.00;7.00;;;;;;;;5078254;28;45322;-75
2022/07/19 06:27:47;;;;;;;;;7.00;5.00;;;;;;;;5078085;28;45879;-74
2022/07/19 06:30:12;;;;;;;;;7.00;7.00;;;;;;;;5078301;28;45393;-78
2022/07/19 06:32:38;;;;;;;;;7.33;6.00;;;;;;;;5077904;28;46167;-77
2022/07/19 06:35:03;;;;;;;;;7.00;6.33;;;;;;;;5077905;28;45310;-80
2022/07/19 06:37:28;;;;;;;;;9.33;8.33;;;;;;;;5077695;28;45414;-80
2022/07/19 06:39:53;;;;;;;;;7.00;7.00;;;;;;;;5078388;28;45638;-80
2022/07/19 06:42:19;;;;;;;;;8.67;7.00;;;;;;;;5077674;28;46588;-73
2022/07/19 06:44:44;;;;;;;;;5.33;4.33;;;;;;;;5077175;28;45345;-78
2022/07/19 06:47:09;;;;;;;;;8.00;8.00;;;;;;;;5078212;28;45327;-79
2022/07/19 06:49:34;;;;;;;;;9.00;7.00;;;;;;;;5078357;28;45328;-80
2022/07/19 06:52:01;;;;;;;;;6.00;6.00;;;;;;;;5078049;28;45415;-75
2022/07/19 06:54:26;;;;;;;;;9.67;7.67;;;;;;;;5076943;28;45788;-75
2022/07/19 06:56:53;;;;;;;;;8.33;7.33;;;;;;;;5078017;28;45385;-78
2022/07/19 06:59:18;;;;;;;;;8.67;8.67;;;;;;;;5077219;28;45572;-76
2022/07/19 07:01:43;;;;;;;;;6.33;6.33;;;;;;;;5077307;28;46196;-76
2022/07/19 07:04:08;;;;;;;;;8.00;6.00;;;;;;;;5077362;28;45716;-77
2022/07/19 07:06:34;;;;;;;;;9.00;7.00;;;;;;;;5077793;28;45529;-75
2022/07/19 07:08:59;;;;;;;;;9.33;7.67;;;;;;;;5077727;28;45494;-75
2022/07/19 07:11:24;;;;;;;;;10.33;6.33;;;;;;;;5077625;28;45685;-76
2022/07/19 07:13:50;;;;;;;;;6.67;6.00;;;;;;;;5077547;28;45740;-76
2022/07/19 07:16:15;;;;;;;;;8.00;6.00;;;;;;;;5077029;28;45895;-73
2022/07/19 07:18:40;;;;;;;;;7.00;7.00;;;;;;;;5077300;28;45335;-73
2022/07/19 07:21:05;;;;;;;;;7.67;7.67;;;;;;;;5077332;28;45380;-74
2022/07/19 07:23:30;;;;;;;;;8.33;8.33;;;;;;;;5077559;28;45451;-73
2022/07/19 07:25:56;;;;;;;;;9.00;7.33;;;;;;;;5077377;28;45445;-72
2022/07/19 07:28:21;;;;;;;;;6.67;6.00;;;;;;;;5077536;28;45245;-72
2022/07/19 07:30:46;;;;;;;;;11.00;8.00;;;;;;;;5076244;28;45433;-74
2022/07/19 07:33:12;;;;;;;;;7.00;7.00;;;;;;;;5077501;28;45302;-73
2022/07/19 07:35:37;;;;;;;;;6.33;6.33;;;;;;;;5077033;28;45484;-73
2022/07/19 07:38:02;;;;;;;;;9.00;9.00;;;;;;;;5077327;28;45403;-75
2022/07/19 07:40:27;;;;;;;;;5.67;5.00;;;;;;;;5077184;28;45480;-75
2022/07/19 07:42:52;;;;;;;;;6.67;6.33;;;;;;;;5076936;28;45555;-76
2022/07/19 07:45:18;;;;;;;;;9.00;9.00;;;;;;;;5077188;28;45315;-74
2022/07/19 07:47:43;;;;;;;;;5.67;5.33;;;;;;;;5077069;28;45266;-73
2022/07/19 07:50:08;;;;;;;;;6.00;6.00;;;;;;;;5077243;28;46270;-77
2022/07/19 07:52:34;;;;;;;;;6.33;5.33;;;;;;;;5075997;28;45379;-76
2022/07/19 07:55:01;;;;;;;;;7.00;6.00;;;;;;;;5077274;28;45443;-76
2022/07/19 07:57:26;;;;;;;;;6.00;6.00;;;;;;;;5077072;28;45593;-76
2022/07/19 07:59:51;;;;;;;;;7.67;6.00;;;;;;;;5076340;28;45473;-76
2022/07/19 08:02:16;;;;;;;;;6.33;6.33;;;;;;;;5076744;28;45502;-75
2022/07/19 08:04:41;;;;;;;;;7.00;6.33;;;;;;;;5076757;28;45579;-74
2022/07/19 08:07:07;;;;;;;;;7.00;7.00;;;;;;;;5075815;28;45726;-72
2022/07/19 08:09:32;;;;;;;;;7.00;7.00;;;;;;;;5076977;28;45405;-75
2022/07/19 08:11:57;;;;;;;;;7.67;7.67;;;;;;;;5076764;28;45373;-74
2022/07/19 08:14:22;;;;;;;;;6.00;6.00;;;;;;;;5076824;28;45472;-73
2022/07/19 08:16:48;;;;;;;;;8.00;6.67;;;;;;;;5075171;28;45361;-73
2022/07/19 08:19:13;;;;;;;;;6.67;6.67;;;;;;;;5075392;28;45831;-73
2022/07/19 08:21:38;;;;;;;;;18.33;14.33;;;;;;;;5076546;28;45515;-73
2022/07/19 08:24:04;;;;;;;;;8.33;8.00;;;;;;;;5076415;28;45401;-74
2022/07/19 08:26:31;;;;;;;;;5.33;5.33;;;;;;;;5076742;28;45502;-73
2022/07/19 08:28:56;;;;;;;;;7.67;6.67;;;;;;;;5073869;28;47477;-74
2022/07/19 08:31:21;;;;;;;;;8.00;6.33;;;;;;;;5075696;28;45319;-74
2022/07/19 08:33:46;;;;;;;;;7.67;7.00;;;;;;;;5075589;27;45706;-69
2022/07/19 08:36:12;;;;;;;;;7.33;7.00;;;;;;;;5076322;28;45351;-73
2022/07/19 08:38:38;;;;;;;;;6.33;5.67;;;;;;;;5075236;28;46852;-75
2022/07/19 08:41:04;;;;;;;;;10.00;8.67;;;;;;;;5075231;27;45335;-72
2022/07/19 08:43:29;;;;;;;;;9.00;8.00;;;;;;;;5075031;28;45496;-73
2022/07/19 08:45:57;;;;;;;;;7.67;7.00;;;;;;;;5075963;28;45384;-76
2022/07/19 08:48:22;;;;;;;;;9.00;9.00;;;;;;;;5075061;28;46884;-69
2022/07/19 08:50:50;;;;;;;;;7.00;6.33;;;;;;;;5075622;28;45402;-72
2022/07/19 08:53:15;;;;;;;;;7.67;6.33;;;;;;;;5075936;28;45742;-75
2022/07/19 08:55:41;;;;;;;;;8.33;6.67;;;;;;;;5075956;28;45425;-74
2022/07/19 08:58:06;;;;;;;;;8.00;7.67;;;;;;;;5075555;28;46463;-71
2022/07/19 09:00:32;;;;;;;;;8.67;7.67;;;;;;;;5075265;28;45709;-73
2022/07/19 09:02:57;;;;;;;;;7.33;7.00;;;;;;;;5076100;28;45416;-73
2022/07/19 09:05:23;;;;;;;;;11.33;9.00;;;;;;;;5075859;28;45671;-72
2022/07/19 09:08:04;;;;;;;;;8.00;6.00;;;;;;;;5075377;28;46123;-72
2022/07/19 09:10:29;;;;;;;;;10.00;8.33;;;;;;;;5075458;28;45481;-74
2022/07/19 09:12:58;;;;;;;;;8.00;6.00;;;;;;;;5074957;28;45790;-75
2022/07/19 09:15:38;;;;;;;;;9.00;8.00;;;;;;;;5075826;28;45760;-75
2022/07/19 09:18:07;;;;;;;;;7.00;7.00;;;;;;;;5077198;28;45423;-74
2022/07/19 09:20:33;;;;;;;;;9.33;8.00;;;;;;;;5078215;28;45526;-76
2022/07/19 09:23:00;;;;;;;;;8.00;6.33;;;;;;;;5079289;28;45377;-74
2022/07/19 09:25:51;;;;;;;;;8.00;8.00;;;;;;;;5079727;28;45405;-69
2022/07/19 09:28:18;;;;;;;;;9.00;7.00;;;;;;;;5076101;27;46515;-72
2022/07/19 09:30:44;;;;;;;;;8.00;8.00;;;;;;;;5078421;28;45435;-68
2022/07/19 09:33:11;;;;;;;;;10.67;7.67;;;;;;;;5079190;28;45383;-72
2022/07/19 09:35:38;;;;;;;;;8.33;7.67;;;;;;;;5079340;28;45749;-69
2022/07/19 09:38:16;;;;;;;;;11.33;8.33;;;;;;;;5079127;28;45390;-71
2022/07/19 09:40:41;;;;;;;;;8.67;7.67;;;;;;;;5078569;28;45448;-69
2022/07/19 09:43:06;;;;;;;;;10.67;7.33;;;;;;;;5060157;28;45380;-73
2022/07/19 09:45:32;;;;;;;;;7.67;7.67;;;;;;;;5079094;28;45526;-70
2022/07/19 09:48:00;;;;;;;;;12.33;9.00;;;;;;;;5078838;28;47228;-71
2022/07/19 09:50:25;;;;;;;;;12.33;9.67;;;;;;;;5078337;28;45469;-74
2022/07/19 09:52:50;;;;;;;;;7.67;6.67;;;;;;;;5078513;28;45578;-71
2022/07/19 09:55:16;;;;;;;;;8.33;7.00;;;;;;;;5078563;28;45793;-71
2022/07/19 09:57:44;;;;;;;;;11.00;8.00;;;;;;;;5078830;28;46448;-70
2022/07/19 10:00:10;;;;;;;;;8.25;8.25;;;;;;;;5078055;28;45635;-70
2022/07/19 10:02:37;;;;;;;;;9.00;7.00;;;;;;;;5078536;28;45666;-70
2022/07/19 10:05:03;;;;;;;;;7.00;6.00;;;;;;;;5078566;28;45419;-70
2022/07/19 10:07:28;;;;;;;;;8.50;7.00;;;;;;;;5078041;28;48515;-73
2022/07/19 10:09:54;;;;;;;;;10.50;7.00;;;;;;;;5078650;28;45323;-75
2022/07/19 10:12:20;;;;;;;;;6.50;6.25;;;;;;;;5078500;28;45379;-66
2022/07/19 10:14:46;;;;;;;;;8.00;8.00;;;;;;;;5077909;28;45415;-70
2022/07/19 10:17:21;;;;;;;;;9.00;6.25;;;;;;;;5062552;28;45526;-74
2022/07/19 10:19:47;;;;;;;;;8.25;7.00;;;;;;;;5074151;28;45812;-72
2022/07/19 10:22:18;;;;;;;;;11.50;6.50;;;;;;;;5075831;28;45484;-67
2022/07/19 10:24:43;;;;;;;;;8.00;7.00;;;;;;;;5077383;27;45811;-78
2022/07/19 10:27:09;;;;;;;;;7.25;6.00;;;;;;;;5077719;28;46188;-73
2022/07/19 10:29:34;;;;;;;;;8.50;7.50;;;;;;;;5077016;28;45755;-72
2022/07/19 10:32:06;;;;;;;;;7.75;6.25;;;;;;;;5077572;28;45311;-72
2022/07/19 10:34:32;;;;;;;;;9.75;7.00;;;;;;;;5077546;28;45363;-72
2022/07/19 10:36:57;;;;;;;;;9.25;6.25;;;;;;;;5077812;28;46418;-73
2022/07/19 10:39:24;;;;;;;;;9.50;8.50;;;;;;;;5077687;28;45412;-72
2022/07/19 10:42:08;;;;;;;;;9.00;7.25;;;;;;;;5077871;28;45367;-72
2022/07/19 10:44:35;;;;;;;;;9.75;7.50;;;;;;;;5068499;28;45796;-75
2022/07/19 10:47:00;;;;;;;;;6.00;6.00;;;;;;;;5073011;28;45582;-73
2022/07/19 10:49:44;;;;;;;;;4.75;4.75;;;;;;;;5078240;28;45396;-71
2022/07/19 10:52:28;;;;;;;;;7.00;6.50;;;;;;;;5078971;28;45363;-75
2022/07/19 10:55:27;;;;;;;;;6.00;6.00;;;;;;;;5079452;28;45253;-70
2022/07/19 10:57:58;;;;;;;;;8.75;7.25;;;;;;;;4996444;28;45612;-71
2022/07/19 11:00:27;;;;;;;;;9.00;7.00;;;;;;;;4996365;28;45524;-73
2022/07/19 11:03:12;;;;;;;;;8.25;7.00;;;;;;;;4996356;28;45796;-73
2022/07/19 11:05:45;;;;;;;;;9.00;8.50;;;;;;;;4996605;28;45637;-71
2022/07/19 11:08:10;;;;;;;;;8.00;7.00;;;;;;;;4993149;28;46700;-73
2022/07/19 11:10:35;;;;;;;;;6.00;6.00;;;;;;;;5014463;28;45419;-72
2022/07/19 11:13:00;;;;;;;;;7.75;7.00;;;;;;;;5014555;28;45776;-71
2022/07/19 11:15:27;;;;;;;;;6.25;6.25;;;;;;;;5014223;28;45531;-75
2022/07/19 11:18:03;;;;;;;;;9.25;7.25;;;;;;;;5014014;28;46657;-76
2022/07/19 11:20:32;;;;;;;;;7.50;7.50;;;;;;;;4998544;28;45541;-68
2022/07/19 11:22:58;;;;;;;;;7.75;6.50;;;;;;;;4995552;28;45544;-68
2022/07/19 11:25:25;;;;;;;;;10.25;8.75;;;;;;;;4996251;28;45619;-72
2022/07/19 11:27:50;;;;;;;;;6.75;6.75;;;;;;;;4995976;28;46402;-70
2022/07/19 11:30:16;;;;;;;;;7.50;7.50;;;;;;;;4995989;28;45461;-71
2022/07/19 11:32:42;;;;;;;;;12.25;9.50;;;;;;;;5011397;28;45406;-70
2022/07/19 11:35:08;;;;;;;;;11.75;10.75;;;;;;;;5078849;27;45783;-70
2022/07/19 11:37:35;;;;;;;;;11.25;8.25;;;;;;;;5099057;27;46998;-72
2022/07/19 11:40:01;;;;;;;;;13.00;11.25;;;;;;;;5091328;27;45329;-75
2022/07/19 11:42:27;;;;;;;;;10.75;9.25;;;;;;;;5077562;28;45421;-78
2022/07/19 11:44:54;;;;;;;;;9.75;9.75;;;;;;;;5078425;28;45469;-76
2022/07/19 11:47:20;;;;;;;;;8.00;8.00;;;;;;;;5077807;28;45317;-72
2022/07/19 11:49:45;;;;;;;;;11.25;9.00;;;;;;;;5077197;28;45386;-72
2022/07/19 11:52:11;;;;;;;;;8.00;7.00;;;;;;;;5078012;28;45410;-72
2022/07/19 11:54:38;;;;;;;;;8.25;7.25;;;;;;;;5078518;28;45390;-77
2022/07/19 11:57:03;;;;;;;;;10.75;10.75;;;;;;;;5098066;27;46646;-75
2022/07/19 11:59:28;;;;;;;;;10.75;9.75;;;;;;;;5097930;27;45413;-76
2022/07/19 12:02:04;;;;;;;;;12.50;10.25;;;;;;;;5111013;27;45342;-75
2022/07/19 12:04:36;;;;;;;;;12.75;12.50;;;;;;;;5112995;27;45459;-73
2022/07/19 12:07:01;;;;;;;;;20.00;14.00;;;;;;;;5115061;27;45432;-70
2022/07/19 12:09:28;;;;;;;;;12.75;12.75;;;;;;;;5115212;27;45355;-72
2022/07/19 12:11:53;;;;;;;;;17.25;15.75;;;;;;;;5114448;27;45581;-70
2022/07/19 12:14:29;;;;;;;;;15.50;15.50;;;;;;;;5114515;27;45371;-66
2022/07/19 12:17:10;;;;;;;;;20.50;17.75;;;;;;;;5114402;27;45393;-67
2022/07/19 12:19:35;;;;;;;;;22.50;21.00;;;;;;;;5117561;27;45607;-66
2022/07/19 12:22:00;;;;;;;;;26.00;25.25;;;;;;;;5134809;27;45485;-68
2022/07/19 12:24:27;;;;;;;;;30.25;27.25;;;;;;;;5134942;27;45695;-67
2022/07/19 12:26:55;;;;;;;;;25.25;25.25;;;;;;;;5135052;27;45393;-66
2022/07/19 12:29:25;;;;;;;;;17.50;17.25;;;;;;;;5134744;27;45337;-65
2022/07/19 12:31:51;;;;;;;;;18.50;18.00;;;;;;;;5134511;27;46651;-66
2022/07/19 12:34:17;;;;;;;;;15.00;15.00;;;;;;;;5134914;27;45527;-71
2022/07/19 12:36:43;;;;;;;;;15.00;13.50;;;;;;;;5135071;27;45452;-70
2022/07/19 12:39:28;;;;;;;;;12.50;11.50;;;;;;;;5135091;27;45520;-68
2022/07/19 12:42:01;;;;;;;;;10.00;9.00;;;;;;;;5134573;27;47419;-66
2022/07/19 12:44:26;;;;;;;;;12.50;9.75;;;;;;;;5134791;27;45480;-64
2022/07/19 12:46:52;;;;;;;;;11.00;9.50;;;;;;;;5134636;27;45362;-68
2022/07/19 12:49:17;;;;;;;;;12.00;11.00;;;;;;;;5134751;27;45403;-69
2022/07/19 12:51:43;;;;;;;;;11.00;11.00;;;;;;;;5134867;27;46150;-69
2022/07/19 12:54:12;;;;;;;;;10.00;9.00;;;;;;;;5134831;27;45481;-67
2022/07/19 12:56:38;;;;;;;;;9.00;8.25;;;;;;;;5131599;27;45448;-66
2022/07/19 13:01:47;;;;;;;;;9.00;9.00;;;;;;;;5121532;27;45438;-65
2022/07/19 13:04:12;;;;;;;;;9.75;9.75;;;;;;;;5134207;27;45499;-66
2022/07/19 13:06:37;;;;;;;;;11.50;10.00;;;;;;;;5134822;27;45398;-65
2022/07/19 13:09:02;;;;;;;;;11.50;10.00;;;;;;;;5134605;27;45534;-69
2022/07/19 13:11:28;;;;;;;;;10.00;9.00;;;;;;;;5119244;27;46301;-65
2022/07/19 13:13:53;;;;;;;;;12.00;9.50;;;;;;;;5099682;27;45339;-70
2022/07/19 13:16:20;;;;;;;;;10.50;10.50;;;;;;;;5099571;27;45606;-69
2022/07/19 13:18:46;;;;;;;;;11.00;10.00;;;;;;;;5082590;27;45383;-66
2022/07/19 13:21:12;;;;;;;;;10.25;9.50;;;;;;;;5091054;27;46510;-68
2022/07/19 13:23:37;;;;;;;;;10.75;10.25;;;;;;;;5079040;28;45347;-66
2022/07/19 13:26:02;;;;;;;;;11.50;10.50;;;;;;;;5079166;28;45483;-71
2022/07/19 13:28:28;;;;;;;;;10.00;10.00;;;;;;;;5079497;28;45802;-70
2022/07/19 13:30:53;;;;;;;;;15.25;12.00;;;;;;;;5079247;28;45379;-74
2022/07/19 13:33:18;;;;;;;;;15.00;11.75;;;;;;;;5078856;28;45417;-73
2022/07/19 13:35:44;;;;;;;;;12.25;10.25;;;;;;;;5079498;28;45448;-67
2022/07/19 13:38:09;;;;;;;;;13.00;10.00;;;;;;;;5078101;27;45583;-68
2022/07/19 13:40:34;;;;;;;;;11.00;10.00;;;;;;;;5078743;28;46102;-76
2022/07/19 13:42:59;;;;;;;;;10.00;10.00;;;;;;;;5080018;27;45393;-81
2022/07/19 13:45:25;;;;;;;;;8.25;8.25;;;;;;;;5097144;27;45363;-71
2022/07/19 13:47:50;;;;;;;;;13.00;8.75;;;;;;;;5099800;27;45308;-71
2022/07/19 13:50:15;;;;;;;;;8.25;8.25;;;;;;;;5098167;27;45573;-69
2022/07/19 13:52:40;;;;;;;;;9.25;8.00;;;;;;;;5098902;27;45613;-73
2022/07/19 13:55:06;;;;;;;;;7.50;7.50;;;;;;;;5099430;27;45928;-69
2022/07/19 13:57:31;;;;;;;;;10.25;8.50;;;;;;;;5098906;27;45413;-68
2022/07/19 13:59:56;;;;;;;;;13.00;9.75;;;;;;;;5081981;27;45473;-70
2022/07/19 14:02:21;;;;;;;;;10.25;8.50;;;;;;;;5078495;28;45440;-68
2022/07/19 14:04:47;;;;;;;;;9.00;9.00;;;;;;;;5078344;28;45410;-72
2022/07/19 14:07:12;;;;;;;;;8.25;8.25;;;;;;;;5078977;27;45349;-68
2022/07/19 14:09:37;;;;;;;;;8.00;8.00;;;;;;;;5078226;28;45442;-72
2022/07/19 14:12:04;;;;;;;;;11.25;7.00;;;;;;;;5078315;28;45449;-71
2022/07/19 14:14:29;;;;;;;;;8.25;7.25;;;;;;;;5078796;27;45433;-72
2022/07/19 14:16:54;;;;;;;;;6.50;5.50;;;;;;;;5079338;27;45352;-70
2022/07/19 14:19:20;;;;;;;;;7.75;6.00;;;;;;;;5078143;28;45825;-72
2022/07/19 14:21:45;;;;;;;;;6.25;5.25;;;;;;;;5078103;28;45600;-72
2022/07/19 14:24:10;;;;;;;;;8.75;5.75;;;;;;;;5077303;28;45229;-69
2022/07/19 14:26:36;;;;;;;;;7.50;7.00;;;;;;;;5078240;28;45354;-71
2022/07/19 14:29:01;;;;;;;;;9.50;6.00;;;;;;;;5078166;28;46957;-71
2022/07/19 14:31:26;;;;;;;;;10.00;10.00;;;;;;;;5077819;27;45356;-73
2022/07/19 14:33:52;;;;;;;;;6.75;6.00;;;;;;;;5078091;28;45447;-77